sensor_id;sensor_type;location;lat;lon;timestamp;pressure;altitude;pressure_sealevel;temperature;humidity
29045;BME280;16133;49.486;12.176;2023-04-06T00:01:10;97745.44;;;-4.63;100.00
29045;BME280;16133;49.486;12.176;2023-04-06T00:03:36;97739.75;;;-4.70;100.00
29045;BME280;16133;49.486;12.176;2023-04-06T00:06:02;97736.56;;;-4.75;100.00
29045;BME280;16133;49.486;12.176;2023-04-06T00:08:27;97740.22;;;-4.79;100.00
29045;BME280;16133;49.486;12.176;2023-04-06T00:10:53;97742.06;;;-4.81;100.00
29045;BME280;16133;49.486;12.176;2023-04-06T00:13:19;97737.03;;;-4.84;100.00
29045;BME280;16133;49.486;12.176;2023-04-06T00:15:45;97739.69;;;-4.86;100.00
29045;BME280;16133;49.486;12.176;2023-04-06T00:18:10;97732.09;;;-4.89;100.00
29045;BME280;16133;49.486;12.176;2023-04-06T00:20:36;97730.50;;;-4.91;100.00
29045;BME280;16133;49.486;12.176;2023-04-06T00:23:01;97729.88;;;-4.96;100.00
29045;BME280;16133;49.486;12.176;2023-04-06T00:25:27;97728.38;;;-5.00;100.00
29045;BME280;16133;49.486;12.176;2023-04-06T00:27:52;97726.53;;;-4.98;100.00
29045;BME280;16133;49.486;12.176;2023-04-06T00:30:18;97726.53;;;-4.98;100.00
29045;BME280;16133;49.486;12.176;2023-04-06T00:32:43;97728.31;;;-4.99;100.00
29045;BME280;16133;49.486;12.176;2023-04-06T00:35:08;97717.28;;;-5.02;100.00
29045;BME280;16133;49.486;12.176;2023-04-06T00:37:34;97718.41;;;-5.08;100.00
29045;BME280;16133;49.486;12.176;2023-04-06T00:40:00;97718.56;;;-5.11;100.00
29045;BME280;16133;49.486;12.176;2023-04-06T00:42:25;97714.44;;;-5.15;100.00
29045;BME280;16133;49.486;12.176;2023-04-06T00:44:55;97714.44;;;-5.15;100.00
29045;BME280;16133;49.486;12.176;2023-04-06T00:47:22;97711.91;;;-5.16;100.00
29045;BME280;16133;49.486;12.176;2023-04-06T00:49:48;97711.19;;;-5.18;100.00
29045;BME280;16133;49.486;12.176;2023-04-06T00:52:13;97710.50;;;-5.22;100.00
29045;BME280;16133;49.486;12.176;2023-04-06T00:54:39;97712.16;;;-5.21;100.00
29045;BME280;16133;49.486;12.176;2023-04-06T00:57:05;97714.03;;;-5.24;100.00
29045;BME280;16133;49.486;12.176;2023-04-06T00:59:31;97719.38;;;-5.27;100.00
29045;BME280;16133;49.486;12.176;2023-04-06T01:01:56;97711.78;;;-5.31;100.00
29045;BME280;16133;49.486;12.176;2023-04-06T01:04:22;97712.00;;;-5.35;100.00
29045;BME280;16133;49.486;12.176;2023-04-06T01:06:48;97716.47;;;-5.39;100.00
29045;BME280;16133;49.486;12.176;2023-04-06T01:09:14;97715.72;;;-5.41;100.00
29045;BME280;16133;49.486;12.176;2023-04-06T01:11:40;97709.78;;;-5.43;100.00
29045;BME280;16133;49.486;12.176;2023-04-06T01:14:05;97714.94;;;-5.43;100.00
29045;BME280;16133;49.486;12.176;2023-04-06T01:16:31;97723.56;;;-5.42;100.00
29045;BME280;16133;49.486;12.176;2023-04-06T01:18:56;97714.78;;;-5.40;100.00
29045;BME280;16133;49.486;12.176;2023-04-06T01:21:22;97713.53;;;-5.31;100.00
29045;BME280;16133;49.486;12.176;2023-04-06T01:23:47;97714.59;;;-5.18;100.00
29045;BME280;16133;49.486;12.176;2023-04-06T01:26:13;97710.41;;;-5.03;100.00
29045;BME280;16133;49.486;12.176;2023-04-06T01:28:38;97709.81;;;-4.91;100.00
29045;BME280;16133;49.486;12.176;2023-04-06T01:31:06;97705.50;;;-4.75;100.00
29045;BME280;16133;49.486;12.176;2023-04-06T01:33:32;97702.22;;;-4.61;100.00
29045;BME280;16133;49.486;12.176;2023-04-06T01:35:57;97702.41;;;-4.49;100.00
29045;BME280;16133;49.486;12.176;2023-04-06T01:38:22;97696.72;;;-4.40;100.00
29045;BME280;16133;49.486;12.176;2023-04-06T01:40:48;97697.09;;;-4.30;100.00
29045;BME280;16133;49.486;12.176;2023-04-06T01:43:13;97697.44;;;-4.20;100.00
29045;BME280;16133;49.486;12.176;2023-04-06T01:45:38;97698.69;;;-4.12;100.00
29045;BME280;16133;49.486;12.176;2023-04-06T01:48:04;97705.16;;;-4.03;100.00
29045;BME280;16133;49.486;12.176;2023-04-06T01:50:30;97708.06;;;-3.94;100.00
29045;BME280;16133;49.486;12.176;2023-04-06T01:52:55;97707.63;;;-3.86;100.00
29045;BME280;16133;49.486;12.176;2023-04-06T01:55:21;97711.50;;;-3.77;100.00
29045;BME280;16133;49.486;12.176;2023-04-06T01:57:46;97717.94;;;-3.69;100.00
29045;BME280;16133;49.486;12.176;2023-04-06T02:00:12;97713.16;;;-3.61;100.00
29045;BME280;16133;49.486;12.176;2023-04-06T02:02:37;97712.63;;;-3.52;100.00
29045;BME280;16133;49.486;12.176;2023-04-06T02:05:03;97716.56;;;-3.45;100.00
29045;BME280;16133;49.486;12.176;2023-04-06T02:07:28;97710.13;;;-3.38;100.00
29045;BME280;16133;49.486;12.176;2023-04-06T02:09:55;97715.69;;;-3.29;100.00
29045;BME280;16133;49.486;12.176;2023-04-06T02:12:20;97706.66;;;-3.22;100.00
29045;BME280;16133;49.486;12.176;2023-04-06T02:14:46;97714.91;;;-3.16;100.00
29045;BME280;16133;49.486;12.176;2023-04-06T02:17:11;97711.97;;;-3.10;100.00
29045;BME280;16133;49.486;12.176;2023-04-06T02:19:37;97715.06;;;-3.03;100.00
29045;BME280;16133;49.486;12.176;2023-04-06T02:22:02;97713.84;;;-2.98;100.00
29045;BME280;16133;49.486;12.176;2023-04-06T02:24:27;97708.31;;;-2.92;100.00
29045;BME280;16133;49.486;12.176;2023-04-06T02:26:53;97707.88;;;-2.84;100.00
29045;BME280;16133;49.486;12.176;2023-04-06T02:29:18;97704.06;;;-2.78;100.00
29045;BME280;16133;49.486;12.176;2023-04-06T02:31:44;97708.97;;;-2.74;100.00
29045;BME280;16133;49.486;12.176;2023-04-06T02:34:09;97707.88;;;-2.70;100.00
29045;BME280;16133;49.486;12.176;2023-04-06T02:36:37;97712.16;;;-2.69;100.00
29045;BME280;16133;49.486;12.176;2023-04-06T02:39:02;97709.38;;;-2.66;100.00
29045;BME280;16133;49.486;12.176;2023-04-06T02:41:28;97708.34;;;-2.63;100.00
29045;BME280;16133;49.486;12.176;2023-04-06T02:43:53;97704.75;;;-2.61;100.00
29045;BME280;16133;49.486;12.176;2023-04-06T02:46:19;97701.97;;;-2.58;100.00
29045;BME280;16133;49.486;12.176;2023-04-06T02:48:44;97707.16;;;-2.58;100.00
29045;BME280;16133;49.486;12.176;2023-04-06T02:51:10;97700.09;;;-2.56;100.00
29045;BME280;16133;49.486;12.176;2023-04-06T02:53:35;97696.56;;;-2.55;100.00
29045;BME280;16133;49.486;12.176;2023-04-06T02:56:00;97694.72;;;-2.53;100.00
29045;BME280;16133;49.486;12.176;2023-04-06T02:58:26;97699.91;;;-2.53;100.00
29045;BME280;16133;49.486;12.176;2023-04-06T03:00:51;97697.41;;;-2.54;100.00
29045;BME280;16133;49.486;12.176;2023-04-06T03:03:16;97700.09;;;-2.56;100.00
29045;BME280;16133;49.486;12.176;2023-04-06T03:05:42;97703.81;;;-2.60;100.00
29045;BME280;16133;49.486;12.176;2023-04-06T03:08:07;97697.31;;;-2.67;100.00
29045;BME280;16133;49.486;12.176;2023-04-06T03:10:32;97699.53;;;-2.75;100.00
29045;BME280;16133;49.486;12.176;2023-04-06T03:12:58;97696.53;;;-2.83;100.00
29045;BME280;16133;49.486;12.176;2023-04-06T03:15:23;97701.34;;;-2.91;100.00
29045;BME280;16133;49.486;12.176;2023-04-06T03:17:48;97699.09;;;-2.97;100.00
29045;BME280;16133;49.486;12.176;2023-04-06T03:20:14;97696.97;;;-3.05;100.00
29045;BME280;16133;49.486;12.176;2023-04-06T03:22:40;97696.38;;;-3.10;100.00
29045;BME280;16133;49.486;12.176;2023-04-06T03:25:06;97692.28;;;-3.14;100.00
29045;BME280;16133;49.486;12.176;2023-04-06T03:27:31;97691.91;;;-3.22;100.00
29045;BME280;16133;49.486;12.176;2023-04-06T03:29:57;97696.72;;;-3.30;100.00
29045;BME280;16133;49.486;12.176;2023-04-06T03:32:23;97704.16;;;-3.40;100.00
29045;BME280;16133;49.486;12.176;2023-04-06T03:34:48;97714.97;;;-3.47;100.00
29045;BME280;16133;49.486;12.176;2023-04-06T03:37:13;97704.13;;;-3.54;100.00
29045;BME280;16133;49.486;12.176;2023-04-06T03:39:39;97706.31;;;-3.62;100.00
29045;BME280;16133;49.486;12.176;2023-04-06T03:42:05;97709.31;;;-3.69;100.00
29045;BME280;16133;49.486;12.176;2023-04-06T03:44:31;97712.16;;;-3.74;100.00
29045;BME280;16133;49.486;12.176;2023-04-06T03:46:56;97719.44;;;-3.80;100.00
29045;BME280;16133;49.486;12.176;2023-04-06T03:49:22;97714.69;;;-3.88;100.00
29045;BME280;16133;49.486;12.176;2023-04-06T03:51:47;97720.19;;;-3.94;100.00
29045;BME280;16133;49.486;12.176;2023-04-06T03:54:13;97711.97;;;-4.02;100.00
29045;BME280;16133;49.486;12.176;2023-04-06T03:56:38;97717.50;;;-4.08;100.00
29045;BME280;16133;49.486;12.176;2023-04-06T03:59:03;97718.75;;;-4.15;100.00
29045;BME280;16133;49.486;12.176;2023-04-06T04:01:29;97725.19;;;-4.22;100.00
29045;BME280;16133;49.486;12.176;2023-04-06T04:03:54;97733.94;;;-4.25;100.00
29045;BME280;16133;49.486;12.176;2023-04-06T04:06:20;97724.59;;;-4.27;100.00
29045;BME280;16133;49.486;12.176;2023-04-06T04:08:45;97729.75;;;-4.27;100.00
29045;BME280;16133;49.486;12.176;2023-04-06T04:11:11;97727.50;;;-4.33;100.00
29045;BME280;16133;49.486;12.176;2023-04-06T04:13:36;97720.94;;;-4.41;100.00
29045;BME280;16133;49.486;12.176;2023-04-06T04:16:01;97727.38;;;-4.48;100.00
29045;BME280;16133;49.486;12.176;2023-04-06T04:18:27;97729.44;;;-4.54;100.00
29045;BME280;16133;49.486;12.176;2023-04-06T04:20:52;97727.19;;;-4.60;100.00
29045;BME280;16133;49.486;12.176;2023-04-06T04:23:17;97724.91;;;-4.66;100.00
29045;BME280;16133;49.486;12.176;2023-04-06T04:25:43;97732.09;;;-4.71;100.00
29045;BME280;16133;49.486;12.176;2023-04-06T04:28:08;97728.72;;;-4.73;100.00
29045;BME280;16133;49.486;12.176;2023-04-06T04:30:34;97733.06;;;-4.74;100.00
29045;BME280;16133;49.486;12.176;2023-04-06T04:32:59;97727.88;;;-4.74;100.00
29045;BME280;16133;49.486;12.176;2023-04-06T04:35:26;97737.25;;;-4.71;100.00
29045;BME280;16133;49.486;12.176;2023-04-06T04:37:51;97732.81;;;-4.69;100.00
29045;BME280;16133;49.486;12.176;2023-04-06T04:40:17;97734.56;;;-4.70;100.00
29045;BME280;16133;49.486;12.176;2023-04-06T04:42:42;97709.03;;;-4.76;100.00
29045;BME280;16133;49.486;12.176;2023-04-06T04:45:08;97730.06;;;-4.66;100.00
29045;BME280;16133;49.486;12.176;2023-04-06T04:47:33;97722.25;;;-4.65;100.00
29045;BME280;16133;49.486;12.176;2023-04-06T04:49:59;97724.84;;;-4.65;100.00
29045;BME280;16133;49.486;12.176;2023-04-06T04:52:24;97719.56;;;-4.63;100.00
29045;BME280;16133;49.486;12.176;2023-04-06T04:54:49;97726.50;;;-4.64;100.00
29045;BME280;16133;49.486;12.176;2023-04-06T04:57:15;97726.50;;;-4.64;100.00
29045;BME280;16133;49.486;12.176;2023-04-06T04:59:40;97715.56;;;-4.69;100.00
29045;BME280;16133;49.486;12.176;2023-04-06T05:02:05;97724.06;;;-4.67;100.00
29045;BME280;16133;49.486;12.176;2023-04-06T05:04:31;97719.72;;;-4.66;100.00
29045;BME280;16133;49.486;12.176;2023-04-06T05:07:07;97729.16;;;-4.65;100.00
29045;BME280;16133;49.486;12.176;2023-04-06T05:09:32;97734.78;;;-4.57;100.00
29045;BME280;16133;49.486;12.176;2023-04-06T05:11:59;97733.63;;;-4.52;100.00
29045;BME280;16133;49.486;12.176;2023-04-06T05:14:25;97734.41;;;-4.50;100.00
29045;BME280;16133;49.486;12.176;2023-04-06T05:16:51;97732.47;;;-4.46;100.00
29045;BME280;16133;49.486;12.176;2023-04-06T05:19:16;97732.31;;;-4.43;100.00
29045;BME280;16133;49.486;12.176;2023-04-06T05:21:42;97726.06;;;-4.39;100.00
29045;BME280;16133;49.486;12.176;2023-04-06T05:24:07;97733.59;;;-4.35;100.00
29045;BME280;16133;49.486;12.176;2023-04-06T05:26:33;97739.28;;;-4.28;100.00
29045;BME280;16133;49.486;12.176;2023-04-06T05:28:59;97735.53;;;-4.22;100.00
29045;BME280;16133;49.486;12.176;2023-04-06T05:31:24;97730.88;;;-4.16;100.00
29045;BME280;16133;49.486;12.176;2023-04-06T05:33:49;97735.66;;;-4.08;100.00
29045;BME280;16133;49.486;12.176;2023-04-06T05:36:15;97741.31;;;-4.02;100.00
29045;BME280;16133;49.486;12.176;2023-04-06T05:38:41;97739.09;;;-3.92;100.00
29045;BME280;16133;49.486;12.176;2023-04-06T05:41:06;97737.66;;;-3.82;100.00
29045;BME280;16133;49.486;12.176;2023-04-06T05:43:31;97743.03;;;-3.69;100.00
29045;BME280;16133;49.486;12.176;2023-04-06T05:45:57;97739.91;;;-3.60;100.00
29045;BME280;16133;49.486;12.176;2023-04-06T05:48:22;97736.38;;;-3.44;100.00
29045;BME280;16133;49.486;12.176;2023-04-06T05:50:49;97737.78;;;-3.22;100.00
29045;BME280;16133;49.486;12.176;2023-04-06T05:53:18;97743.69;;;-3.05;100.00
29045;BME280;16133;49.486;12.176;2023-04-06T05:55:43;97718.56;;;-3.04;100.00
29045;BME280;16133;49.486;12.176;2023-04-06T05:58:09;97747.94;;;-2.74;100.00
29045;BME280;16133;49.486;12.176;2023-04-06T06:00:35;97751.75;;;-2.65;100.00
29045;BME280;16133;49.486;12.176;2023-04-06T06:03:00;97750.28;;;-2.55;100.00
29045;BME280;16133;49.486;12.176;2023-04-06T06:05:29;97747.22;;;-2.48;100.00
29045;BME280;16133;49.486;12.176;2023-04-06T06:07:55;97751.06;;;-2.39;100.00
29045;BME280;16133;49.486;12.176;2023-04-06T06:10:20;97750.47;;;-2.30;100.00
29045;BME280;16133;49.486;12.176;2023-04-06T06:12:45;97750.13;;;-2.24;100.00
29045;BME280;16133;49.486;12.176;2023-04-06T06:15:11;97749.59;;;-2.15;100.00
29045;BME280;16133;49.486;12.176;2023-04-06T06:17:36;97754.41;;;-2.09;100.00
29045;BME280;16133;49.486;12.176;2023-04-06T06:20:05;97754.00;;;-2.03;100.00
29045;BME280;16133;49.486;12.176;2023-04-06T06:22:31;97746.97;;;-2.01;100.00
29045;BME280;16133;49.486;12.176;2023-04-06T06:24:56;97754.09;;;-1.90;100.00
29045;BME280;16133;49.486;12.176;2023-04-06T06:27:21;97749.47;;;-1.85;100.00
29045;BME280;16133;49.486;12.176;2023-04-06T06:29:47;97750.56;;;-1.75;100.00
29045;BME280;16133;49.486;12.176;2023-04-06T06:32:12;97750.91;;;-1.67;100.00
29045;BME280;16133;49.486;12.176;2023-04-06T06:34:37;97753.78;;;-1.57;100.00
29045;BME280;16133;49.486;12.176;2023-04-06T06:37:03;97750.78;;;-1.51;100.00
29045;BME280;16133;49.486;12.176;2023-04-06T06:39:28;97756.78;;;-1.36;100.00
29045;BME280;16133;49.486;12.176;2023-04-06T06:41:54;97757.78;;;-1.25;100.00
29045;BME280;16133;49.486;12.176;2023-04-06T06:44:20;97754.59;;;-1.16;100.00
29045;BME280;16133;49.486;12.176;2023-04-06T06:46:47;97760.78;;;-1.04;100.00
29045;BME280;16133;49.486;12.176;2023-04-06T06:49:12;97766.13;;;-0.93;100.00
29045;BME280;16133;49.486;12.176;2023-04-06T06:51:37;97762.78;;;-0.82;100.00
29045;BME280;16133;49.486;12.176;2023-04-06T06:54:03;97766.38;;;-0.71;100.00
29045;BME280;16133;49.486;12.176;2023-04-06T06:56:28;97769.09;;;-0.60;100.00
29045;BME280;16133;49.486;12.176;2023-04-06T06:58:54;97763.28;;;-0.51;100.00
29045;BME280;16133;49.486;12.176;2023-04-06T07:01:19;97764.09;;;-0.37;100.00
29045;BME280;16133;49.486;12.176;2023-04-06T07:03:45;97761.50;;;-0.25;100.00
29045;BME280;16133;49.486;12.176;2023-04-06T07:06:10;97768.91;;;-0.06;100.00
29045;BME280;16133;49.486;12.176;2023-04-06T07:08:36;97774.97;;;0.07;100.00
29045;BME280;16133;49.486;12.176;2023-04-06T07:11:01;97766.25;;;0.19;100.00
29045;BME280;16133;49.486;12.176;2023-04-06T07:13:27;97762.09;;;0.29;100.00
29045;BME280;16133;49.486;12.176;2023-04-06T07:15:52;97765.50;;;0.42;100.00
29045;BME280;16133;49.486;12.176;2023-04-06T07:18:19;97759.53;;;0.53;100.00
29045;BME280;16133;49.486;12.176;2023-04-06T07:20:45;97764.59;;;0.67;100.00
29045;BME280;16133;49.486;12.176;2023-04-06T07:23:10;97762.28;;;0.75;100.00
29045;BME280;16133;49.486;12.176;2023-04-06T07:25:36;97756.34;;;0.84;98.74
29045;BME280;16133;49.486;12.176;2023-04-06T07:28:03;97764.16;;;0.97;98.22
29045;BME280;16133;49.486;12.176;2023-04-06T07:30:28;97755.41;;;1.09;95.74
29045;BME280;16133;49.486;12.176;2023-04-06T07:32:54;97762.38;;;1.21;94.94
29045;BME280;16133;49.486;12.176;2023-04-06T07:35:24;97762.63;;;1.29;93.86
29045;BME280;16133;49.486;12.176;2023-04-06T07:37:51;97764.44;;;1.40;92.76
29045;BME280;16133;49.486;12.176;2023-04-06T07:40:16;97762.69;;;1.52;91.19
29045;BME280;16133;49.486;12.176;2023-04-06T07:42:42;97768.69;;;1.65;89.07
29045;BME280;16133;49.486;12.176;2023-04-06T07:45:07;97764.06;;;1.79;88.14
29045;BME280;16133;49.486;12.176;2023-04-06T07:47:33;97769.44;;;2.00;86.46
29045;BME280;16133;49.486;12.176;2023-04-06T07:49:58;97756.47;;;2.21;83.37
29045;BME280;16133;49.486;12.176;2023-04-06T07:52:24;97751.47;;;2.40;82.43
29045;BME280;16133;49.486;12.176;2023-04-06T07:54:50;97768.19;;;2.82;80.95
29045;BME280;16133;49.486;12.176;2023-04-06T07:57:15;97768.56;;;3.20;78.66
29045;BME280;16133;49.486;12.176;2023-04-06T07:59:41;97758.53;;;3.46;76.55
29045;BME280;16133;49.486;12.176;2023-04-06T08:02:06;97765.97;;;3.82;74.41
29045;BME280;16133;49.486;12.176;2023-04-06T08:04:31;97764.91;;;4.15;72.46
29045;BME280;16133;49.486;12.176;2023-04-06T08:06:57;97761.19;;;4.48;70.81
29045;BME280;16133;49.486;12.176;2023-04-06T08:09:22;97753.47;;;4.75;68.82
29045;BME280;16133;49.486;12.176;2023-04-06T08:11:48;97758.53;;;4.98;68.43
29045;BME280;16133;49.486;12.176;2023-04-06T08:14:14;97752.88;;;5.12;65.95
29045;BME280;16133;49.486;12.176;2023-04-06T08:16:41;97759.38;;;5.27;65.61
29045;BME280;16133;49.486;12.176;2023-04-06T08:19:06;97751.22;;;5.40;65.13
29045;BME280;16133;49.486;12.176;2023-04-06T08:21:37;97754.66;;;5.50;63.88
29045;BME280;16133;49.486;12.176;2023-04-06T08:24:03;97765.47;;;5.56;63.43
29045;BME280;16133;49.486;12.176;2023-04-06T08:26:29;97760.34;;;5.64;63.00
29045;BME280;16133;49.486;12.176;2023-04-06T08:28:54;97761.72;;;5.78;61.89
29045;BME280;16133;49.486;12.176;2023-04-06T08:31:20;97758.25;;;5.87;61.65
29045;BME280;16133;49.486;12.176;2023-04-06T08:33:45;97748.13;;;5.92;61.40
29045;BME280;16133;49.486;12.176;2023-04-06T08:36:12;97749.50;;;5.96;60.67
29045;BME280;16133;49.486;12.176;2023-04-06T08:38:39;97755.59;;;5.97;61.26
29045;BME280;16133;49.486;12.176;2023-04-06T08:41:12;97749.78;;;5.93;61.70
29045;BME280;16133;49.486;12.176;2023-04-06T08:43:49;97744.66;;;5.82;61.60
29045;BME280;16133;49.486;12.176;2023-04-06T08:46:15;97747.84;;;5.76;60.59
29045;BME280;16133;49.486;12.176;2023-04-06T08:48:42;97741.63;;;5.67;61.90
29045;BME280;16133;49.486;12.176;2023-04-06T08:51:08;97744.16;;;5.59;60.38
29045;BME280;16133;49.486;12.176;2023-04-06T08:53:34;97740.69;;;5.59;60.04
29045;BME280;16133;49.486;12.176;2023-04-06T08:56:00;97747.16;;;5.64;59.35
29045;BME280;16133;49.486;12.176;2023-04-06T08:58:28;97748.72;;;5.57;58.43
29045;BME280;16133;49.486;12.176;2023-04-06T09:00:56;97740.69;;;5.59;58.36
29045;BME280;16133;49.486;12.176;2023-04-06T09:03:22;97739.00;;;5.58;58.92
29045;BME280;16133;49.486;12.176;2023-04-06T09:05:49;97737.75;;;5.62;56.51
29045;BME280;16133;49.486;12.176;2023-04-06T09:08:14;97739.97;;;5.66;57.98
29045;BME280;16133;49.486;12.176;2023-04-06T09:10:41;97741.50;;;5.69;59.12
29045;BME280;16133;49.486;12.176;2023-04-06T09:13:07;97740.91;;;5.75;57.56
29045;BME280;16133;49.486;12.176;2023-04-06T09:15:33;97746.16;;;5.85;56.44
29045;BME280;16133;49.486;12.176;2023-04-06T09:17:58;97743.16;;;5.89;56.38
29045;BME280;16133;49.486;12.176;2023-04-06T09:20:24;97738.56;;;5.91;56.58
29045;BME280;16133;49.486;12.176;2023-04-06T09:22:56;97740.53;;;5.89;56.24
29045;BME280;16133;49.486;12.176;2023-04-06T09:25:23;97734.00;;;5.93;55.19
29045;BME280;16133;49.486;12.176;2023-04-06T09:27:58;97737.84;;;6.08;55.63
29045;BME280;16133;49.486;12.176;2023-04-06T09:30:25;97730.91;;;6.07;56.78
29045;BME280;16133;49.486;12.176;2023-04-06T09:32:53;97729.22;;;6.16;56.97
29045;BME280;16133;49.486;12.176;2023-04-06T09:35:19;97729.22;;;6.16;55.81
29045;BME280;16133;49.486;12.176;2023-04-06T09:37:47;97720.88;;;6.20;55.47
29045;BME280;16133;49.486;12.176;2023-04-06T09:40:13;97721.94;;;6.28;56.00
29045;BME280;16133;49.486;12.176;2023-04-06T09:42:41;97722.09;;;6.26;54.83
29045;BME280;16133;49.486;12.176;2023-04-06T09:45:07;97714.41;;;6.33;54.19
29045;BME280;16133;49.486;12.176;2023-04-06T09:47:35;97718.31;;;6.29;54.01
29045;BME280;16133;49.486;12.176;2023-04-06T09:50:02;97713.69;;;6.40;53.82
29045;BME280;16133;49.486;12.176;2023-04-06T09:52:32;97717.03;;;6.42;54.00
29045;BME280;16133;49.486;12.176;2023-04-06T09:55:03;97710.09;;;6.41;52.21
29045;BME280;16133;49.486;12.176;2023-04-06T09:57:32;97706.28;;;6.53;53.67
29045;BME280;16133;49.486;12.176;2023-04-06T10:00:06;97707.06;;;6.63;53.27
29045;BME280;16133;49.486;12.176;2023-04-06T10:05:43;97697.13;;;6.75;52.87
29045;BME280;16133;49.486;12.176;2023-04-06T10:08:12;97700.84;;;6.82;51.34
29045;BME280;16133;49.486;12.176;2023-04-06T10:10:38;97706.94;;;6.83;51.30
29045;BME280;16133;49.486;12.176;2023-04-06T10:13:04;97702.34;;;7.02;52.66
29045;BME280;16133;49.486;12.176;2023-04-06T10:15:31;97690.69;;;7.05;52.33
29045;BME280;16133;49.486;12.176;2023-04-06T10:17:57;97700.41;;;7.04;51.11
29045;BME280;16133;49.486;12.176;2023-04-06T10:25:30;97697.81;;;6.95;48.95
29045;BME280;16133;49.486;12.176;2023-04-06T10:28:00;97694.97;;;6.88;48.61
29045;BME280;16133;49.486;12.176;2023-04-06T10:30:26;97694.66;;;6.91;48.04
29045;BME280;16133;49.486;12.176;2023-04-06T10:32:52;97688.94;;;6.78;48.57
29045;BME280;16133;49.486;12.176;2023-04-06T10:35:17;97690.75;;;6.95;48.41
29045;BME280;16133;49.486;12.176;2023-04-06T10:38:00;97688.81;;;6.97;46.16
29045;BME280;16133;49.486;12.176;2023-04-06T10:40:26;97682.22;;;6.84;46.57
29045;BME280;16133;49.486;12.176;2023-04-06T10:42:55;97686.66;;;6.65;47.79
29045;BME280;16133;49.486;12.176;2023-04-06T10:45:31;97693.88;;;6.63;48.27
29045;BME280;16133;49.486;12.176;2023-04-06T10:47:57;97683.72;;;6.68;49.62
29045;BME280;16133;49.486;12.176;2023-04-06T10:50:22;97682.53;;;6.81;50.44
29045;BME280;16133;49.486;12.176;2023-04-06T10:53:01;97686.03;;;7.16;50.78
29045;BME280;16133;49.486;12.176;2023-04-06T10:55:28;97682.84;;;7.31;50.09
29045;BME280;16133;49.486;12.176;2023-04-06T10:57:54;97685.88;;;7.44;49.48
29045;BME280;16133;49.486;12.176;2023-04-06T11:00:20;97665.19;;;7.31;47.30
29045;BME280;16133;49.486;12.176;2023-04-06T11:02:45;97658.91;;;7.50;46.86
29045;BME280;16133;49.486;12.176;2023-04-06T11:05:11;97675.84;;;7.65;48.03
29045;BME280;16133;49.486;12.176;2023-04-06T11:07:39;97665.19;;;7.83;48.20
29045;BME280;16133;49.486;12.176;2023-04-06T11:10:05;97658.22;;;7.99;48.79
29045;BME280;16133;49.486;12.176;2023-04-06T11:12:31;97657.09;;;8.10;47.79
29045;BME280;16133;49.486;12.176;2023-04-06T11:14:58;97660.75;;;8.17;47.12
29045;BME280;16133;49.486;12.176;2023-04-06T11:17:29;97646.41;;;8.20;46.89
29045;BME280;16133;49.486;12.176;2023-04-06T11:19:56;97652.94;;;8.33;48.09
29045;BME280;16133;49.486;12.176;2023-04-06T11:22:22;97652.69;;;8.52;48.47
29045;BME280;16133;49.486;12.176;2023-04-06T11:24:47;97640.13;;;8.54;47.15
29045;BME280;16133;49.486;12.176;2023-04-06T11:27:14;97650.38;;;8.57;47.60
29045;BME280;16133;49.486;12.176;2023-04-06T11:29:41;97638.00;;;8.58;45.98
29045;BME280;16133;49.486;12.176;2023-04-06T11:32:07;97626.06;;;8.46;44.79
29045;BME280;16133;49.486;12.176;2023-04-06T11:34:36;97634.50;;;8.49;45.58
29045;BME280;16133;49.486;12.176;2023-04-06T11:37:03;97631.50;;;8.44;45.10
29045;BME280;16133;49.486;12.176;2023-04-06T11:39:31;97628.34;;;8.41;44.27
29045;BME280;16133;49.486;12.176;2023-04-06T11:42:01;97619.75;;;8.39;46.51
29045;BME280;16133;49.486;12.176;2023-04-06T11:44:37;97613.47;;;8.48;45.53
29045;BME280;16133;49.486;12.176;2023-04-06T11:47:07;97626.41;;;8.67;44.57
29045;BME280;16133;49.486;12.176;2023-04-06T11:49:33;97624.16;;;8.80;46.05
29045;BME280;16133;49.486;12.176;2023-04-06T11:52:02;97617.53;;;8.84;44.13
29045;BME280;16133;49.486;12.176;2023-04-06T11:54:35;97612.22;;;8.68;44.82
29045;BME280;16133;49.486;12.176;2023-04-06T11:57:01;97606.56;;;8.47;45.42
29045;BME280;16133;49.486;12.176;2023-04-06T11:59:27;97607.56;;;8.54;45.52
29045;BME280;16133;49.486;12.176;2023-04-06T12:01:53;97592.47;;;8.38;45.45
29045;BME280;16133;49.486;12.176;2023-04-06T12:04:19;97600.06;;;8.33;43.34
29045;BME280;16133;49.486;12.176;2023-04-06T12:06:44;97607.09;;;8.25;43.47
29045;BME280;16133;49.486;12.176;2023-04-06T12:09:10;97598.91;;;8.02;43.86
29045;BME280;16133;49.486;12.176;2023-04-06T12:11:35;97602.78;;;8.15;45.20
29045;BME280;16133;49.486;12.176;2023-04-06T12:14:00;97598.66;;;8.21;45.90
29045;BME280;16133;49.486;12.176;2023-04-06T12:16:27;97600.69;;;8.27;47.22
29045;BME280;16133;49.486;12.176;2023-04-06T12:18:52;97586.28;;;8.22;46.52
29045;BME280;16133;49.486;12.176;2023-04-06T12:21:17;97582.16;;;8.19;46.43
29045;BME280;16133;49.486;12.176;2023-04-06T12:23:43;97578.78;;;8.09;46.25
29045;BME280;16133;49.486;12.176;2023-04-06T12:26:08;97585.25;;;8.06;46.58
29045;BME280;16133;49.486;12.176;2023-04-06T12:28:33;97575.00;;;8.03;47.40
29045;BME280;16133;49.486;12.176;2023-04-06T12:30:59;97557.13;;;7.97;45.32
29045;BME280;16133;49.486;12.176;2023-04-06T12:33:24;97579.59;;;8.01;46.14
29045;BME280;16133;49.486;12.176;2023-04-06T12:35:50;97572.50;;;8.02;47.39
29045;BME280;16133;49.486;12.176;2023-04-06T12:38:15;97572.38;;;8.11;48.05
29045;BME280;16133;49.486;12.176;2023-04-06T12:40:41;97571.91;;;8.16;47.09
29045;BME280;16133;49.486;12.176;2023-04-06T12:43:06;97577.19;;;8.16;46.79
29045;BME280;16133;49.486;12.176;2023-04-06T12:45:32;97565.47;;;8.18;47.05
29045;BME280;16133;49.486;12.176;2023-04-06T12:47:58;97571.59;;;8.19;47.48
29045;BME280;16133;49.486;12.176;2023-04-06T12:50:23;97554.53;;;8.13;47.87